Flight Track Log - Related Links

Times and Time Zones

All times are in EDT time to prevent confusion due to time zone crossing. See the N30898 flight status page for this flight to view local times or setup timezone preferences in your user account.

Time Position Orientation Groundspeed Altitude Reporting Facility
EDT Latitude Longitude Course Direction KTS MPH feet Rate Location/Type
Sat 10:17:03 AM 34.9500 -89.7167 117° Southeast 167 192 2,700  Level KMEM
Sat 10:18:03 AM 34.9500 -89.6667 90° East 156 180 4,100 1,398 Climbing KMEM
Sat 10:18:46 AM 34.9500 -89.6333 90° East 151 174 5,100 1,371 Climbing KMEM
Sat 10:19:48 AM 34.9667 -89.5833 68° East 155 178 6,500 1,339 Climbing KMEM
Sat 10:20:47 AM 35.0000 -89.5500 39° Northeast 156 180 7,800 1,350 Climbing KMEM
Sat 10:21:48 AM 35.0333 -89.5167 39° Northeast 155 178 9,200 1,452 Climbing KMEM
Sat 10:22:51 AM 35.0667 -89.4833 39° Northeast 155 178 10,800 1,220 Climbing KMEM
Sat 10:23:51 AM 35.1000 -89.4333 51° Northeast 169 194 11,700 918 Climbing KMEM
Sat 10:24:29 AM 35.1247 -89.4100 38° Northeast 176 203 12,300 1,041 Climbing Memphis Center
Sat 10:25:29 AM 35.1597 -89.3692 44° Northeast 218 251 13,400 800 Climbing Memphis Center
Sat 10:26:29 AM 35.1906 -89.3153 55° Northeast 211 243 13,900 550 Climbing Memphis Center
Sat 10:27:29 AM 35.2108 -89.2439 71° East 206 237 14,500 850 Climbing Memphis Center
Sat 10:28:29 AM 35.2292 -89.1828 70° East 200 230 15,600 1,050 Climbing Memphis Center
Sat 10:29:29 AM 35.2494 -89.1189 69° East 195 224 16,600 700 Climbing Memphis Center
Sat 10:30:29 AM 35.2717 -89.0497 69° East 202 232 17,000 200 Climbing Memphis Center
Sat 10:31:29 AM 35.2936 -88.9756 70° East 220 253 17,000  Level Memphis Center
Sat 10:32:29 AM 35.3139 -88.9067 70° East 230 265 17,000  Level Memphis Center
Sat 10:33:29 AM 35.3378 -88.8300 69° East 235 270 17,000  Level Memphis Center
Sat 10:34:29 AM 35.3619 -88.7506 70° East 240 276 17,000  Level Memphis Center
Sat 10:35:29 AM 35.3858 -88.6711 70° East 240 276 17,000  Level Memphis Center
Sat 10:36:29 AM 35.4100 -88.5942 69° East 240 276 17,000  Level Memphis Center
Sat 10:37:29 AM 35.4294 -88.5147 73° East 240 276 17,000  Level Memphis Center
Sat 10:38:29 AM 35.4533 -88.4378 69° East 240 276 17,000  Level Memphis Center
Sat 10:39:29 AM 35.4792 -88.3556 69° East 245 282 17,000  Level Memphis Center
Sat 10:40:29 AM 35.5031 -88.2761 70° East 245 282 17,000  Level Memphis Center
Sat 10:41:29 AM 35.5247 -88.1989 71° East 250 288 17,000 -50 Level Memphis Center
Sat 10:42:29 AM 35.5522 -88.1089 69° East 245 282 16,900 -50 Descending Memphis Center
Sat 10:43:29 AM 35.5778 -88.0292 68° East 245 282 16,900  Level Memphis Center
Sat 10:44:29 AM 35.6014 -87.9467 71° East 253 291 16,900  Level Memphis Center
Sat 10:45:29 AM 35.6247 -87.8617 71° East 247 284 16,900 50 Level Memphis Center
Sat 10:46:29 AM 35.6481 -87.7819 70° East 247 284 17,000 50 Climbing Memphis Center
Sat 10:47:29 AM 35.6733 -87.6992 69° East 247 284 17,000 -550 Level Memphis Center
Sat 10:48:29 AM 35.6906 -87.6297 73° East 247 284 15,900 -1,300 Descending Memphis Center
Sat 10:49:29 AM 35.7119 -87.5575 70° East 235 270 14,400 -1,450 Descending Memphis Center
Sat 10:50:29 AM 35.7311 -87.4878 71° East 224 258 13,000 -1,400 Descending Memphis Center
Sat 10:51:29 AM 35.7525 -87.4203 69° East 213 245 11,600 -1,400 Descending Memphis Center
Sat 10:52:29 AM 35.7719 -87.3558 70° East 208 239 10,200 -1,150 Descending Memphis Center
Sat 10:53:29 AM 35.7911 -87.2911 70° East 202 232 9,300 -650 Descending Memphis Center
Sat 10:54:29 AM 35.8083 -87.2264 72° East 192 221 8,900 -450 Descending Memphis Center
Sat 10:55:29 AM 35.8211 -87.1544 78° East 187 215 8,400 -600 Descending Memphis Center
Sat 10:56:29 AM 35.8339 -87.0897 76° East 187 215 7,700 -650 Descending Memphis Center
Sat 10:57:29 AM 35.8489 -87.0253 74° East 187 215 7,100 -350 Descending Memphis Center
Sat 10:58:29 AM 35.8639 -86.9553 75° East 193 222 7,000 -50 Descending Memphis Center
Sat 10:59:29 AM 35.8764 -86.8858 77° East 203 234 7,000 -500 Level Memphis Center
Sat 11:00:29 AM 35.8892 -86.8211 76° East 198 228 6,000 -1,000 Descending Memphis Center
Sat 11:01:29 AM 35.9019 -86.7617 75° East 186 214 5,000 -1,000 Descending Memphis Center
Sat 11:02:29 AM 35.9150 -86.7022 75° East 181 208 4,000 -1,000 Descending Memphis Center
Sat 11:03:29 AM 35.9278 -86.6453 74° East 176 203 3,000 -750 Descending Memphis Center
Sat 11:04:29 AM 35.9386 -86.5883 77° East 171 197 2,500 -373 Descending Memphis Center
Sat 11:06:42 AM 35.9500 -86.4833 82° East 119 137 1,800 -373 Descending Nashville TRACON
Sat 11:07:42 AM 35.9833 -86.4833 360° North 121 139 1,300 -500 Descending Nashville TRACON
Sat 11:09:00 AM 36.0000 -86.5167 302° West  Level FlightAware Approximate
Sat 11:16:00 AM 36.0090 -86.5201 302° West  Level Estimated
Sat 11:17:00 AM 36.0090 -86.5201 302° West  Level Estimated
Sat 11:18:00 AM 36.0090 -86.5201 302° West  Level Estimated
Sat 11:19:00 AM 36.0090 -86.5201 302° West  Level Estimated
Sat 11:20:00 AM 36.0090 -86.5201 302° West  Level Estimated
Sat 11:21:00 AM 36.0090 -86.5201 302° West  Level Estimated
Sat 11:22:00 AM 36.0090 -86.5201 302° West  Level Estimated
Sat 11:23:00 AM 36.0090 -86.5201 302° West  Level Estimated
Sat 11:24:00 AM 36.0090 -86.5201 302° West  Level Estimated

Login

Don't have an account? Register now (free) for customized features, flight alerts, and more!